Weather reports worldwide

Advertisment
Bala, United Kingdom (3409): temperature & dewpoint: 13.04.2019 00:00:00 - 19.04.2019 00:00:00 (BST)Bala, United Kingdom (3409): temperature -20cm & temperature -100cm: 13.04.2019 00:00:00 - 19.04.2019 00:00:00 (BST)Bala, United Kingdom (3409): wind speed & gusts: 13.04.2019 00:00:00 - 19.04.2019 00:00:00 (BST)Bala, United Kingdom (3409): wind direction: 13.04.2019 00:00:00 - 19.04.2019 00:00:00 (BST)Bala, United Kingdom (3409): reduced air pressure: 13.04.2019 00:00:00 - 19.04.2019 00:00:00 (BST)Bala, United Kingdom (3409): sunshine duration: 13.04.2019 00:00:00 - 19.04.2019 00:00:00 (BST)Bala, United Kingdom (3409): precipitation: 13.04.2019 00:00:00 - 19.04.2019 00:00:00 (BST)
Date & Time tt [°C] td [°C] tt -20cm [°C] tt -100cm [°C] ff [km/h] ff [kn] fx [km/h] fx [kn] dd ppp [hPa] sd [min] rr [mm]
19.04.2019 00:00:00 7,3 6,3 - - 2 1 - - N 1027,7 0 0,0
18.04.2019 23:00:00 8,6 7,6 - - 0 0 - - N 1027,2 0 0,0
18.04.2019 22:00:00 9,3 7,7 - - 2 1 - - ENE 1026,7 0 0,0
18.04.2019 21:00:00 10,5 8,1 - - 2 1 - - NNE 1026,0 0 0,0
18.04.2019 20:00:00 13,2 8,4 - - 4 2 - - SE 1025,1 0 0,0
18.04.2019 19:00:00 16,1 9,4 - - 9 5 - - E 1024,2 6 0,0
18.04.2019 18:00:00 16,5 9,2 - - 13 7 - - E 1024,2 0 0,0
18.04.2019 17:00:00 16,3 9,3 - - 13 7 - - ESE 1024,0 0 0,0
18.04.2019 16:00:00 16,6 7,7 - - 18 10 - - ESE 1023,8 0 0,0
18.04.2019 15:00:00 16,5 8,5 - - 18 10 - - E 1024,0 30 0,0
18.04.2019 14:00:00 17,1 9,3 - - 18 10 - - E 1023,8 60 0,0
18.04.2019 13:00:00 16,0 9,2 - - 18 10 - - E 1024,0 60 0,0
18.04.2019 12:00:00 13,6 8,4 - - 16 9 - - E 1024,5 60 0,0
18.04.2019 11:00:00 12,5 8,3 - - 16 9 - - E 1024,7 60 0,0
18.04.2019 10:00:00 12,4 8,3 9,7 8,9 9 5 - - E 1024,4 48 0,0
18.04.2019 09:00:00 11,1 8,2 - - 16 9 - - ENE 1024,1 30 0,0
18.04.2019 08:00:00 9,6 7,6 - - 16 9 - - E 1023,9 0 0,0
18.04.2019 07:00:00 7,9 6,7 - - 2 1 - - N 1023,7 0 0,0
18.04.2019 06:00:00 9,3 7,8 - - 15 8 - - E 1022,9 0 0,0
18.04.2019 05:00:00 9,0 7,5 - - 5 3 - - NE 1022,7 0 0,0
18.04.2019 04:00:00 9,6 7,5 - - 5 3 - - E 1022,6 0 0,0
18.04.2019 03:00:00 9,2 7,7 - - 8 4 - - NE 1022,3 0 0,0
18.04.2019 02:00:00 8,7 7,1 - - 5 3 - - E 1022,3 0 0,0
18.04.2019 01:00:00 9,4 7,5 - - 13 7 - - ENE 1022,2 - 0,0
18.04.2019 00:00:00 10,7 8,2 - - 15 8 - - E 1021,8 0 0,0
17.04.2019 23:00:00 10,3 7,6 - - 15 8 - - ENE 1021,4 0 0,0
17.04.2019 22:00:00 9,5 6,9 - - 4 2 - - NE 1021,2 0 0,0
17.04.2019 21:00:00 10,1 7,0 - - 4 2 - - E 1020,6 0 0,0
17.04.2019 20:00:00 12,2 6,8 - - 5 3 - - E 1019,9 0 0,0
17.04.2019 19:00:00 14,6 7,0 - - 9 5 - - E 1019,4 0 0,0
17.04.2019 18:00:00 15,8 6,7 - - 13 7 - - E 1019,2 36 0,0
17.04.2019 17:00:00 15,7 5,8 - - 13 7 - - ESE 1019,1 24 0,0
17.04.2019 16:00:00 16,4 6,1 - - 11 6 - - ESE 1019,2 60 0,0
17.04.2019 15:00:00 15,7 4,6 - - 13 7 - - E 1019,6 60 0,0
17.04.2019 14:00:00 15,7 5,0 - - 9 5 - - SE 1019,9 60 0,0
17.04.2019 13:00:00 14,7 7,2 - - 15 8 - - E 1020,2 60 0,0
17.04.2019 12:00:00 13,4 6,2 - - 11 6 - - ESE 1020,3 60 0,0
17.04.2019 11:00:00 11,9 7,4 - - 4 2 - - W 1020,6 30 0,0
17.04.2019 10:00:00 10,2 7,9 9,2 8,7 5 3 - - ESE 1020,7 0 0,0
17.04.2019 09:00:00 8,3 6,1 - - 5 3 - - ESE 1020,5 0 0,0
17.04.2019 08:00:00 7,0 6,6 - - 5 3 - - E 1020,3 0 0,0
17.04.2019 07:00:00 5,1 4,4 - - 2 1 - - ENE 1020,1 0 0,0
17.04.2019 06:00:00 7,2 5,9 - - 2 1 - - NE 1019,5 0 0,0
17.04.2019 05:00:00 7,2 6,3 - - 4 2 - - E 1019,4 0 0,0
17.04.2019 04:00:00 7,0 6,1 - - 4 2 - - ENE 1019,3 0 0,0
17.04.2019 03:00:00 7,3 6,4 - - 0 0 - - N 1019,1 0 0,0
17.04.2019 02:00:00 7,6 6,7 - - 4 2 - - E 1019,3 0 0,0
17.04.2019 01:00:00 7,1 6,1 - - 2 1 - - E 1019,2 - 0,0
17.04.2019 00:00:00 8,0 6,6 - - 2 1 - - SW 1019,1 0 0,0
16.04.2019 23:00:00 8,2 6,8 - - 4 2 - - WSW 1019,0 0 0,0
16.04.2019 22:00:00 8,7 6,9 - - 0 0 - - N 1018,8 0 0,0
16.04.2019 21:00:00 9,2 6,9 - - 2 1 - - SSE 1018,4 0 0,0
16.04.2019 20:00:00 9,9 6,6 - - 5 3 - - E 1017,6 0 0,0
16.04.2019 19:00:00 10,4 6,4 - - 9 5 - - ESE 1017,2 0 0,0
16.04.2019 18:00:00 11,0 6,8 - - 8 4 - - ESE 1016,9 0 0,0
16.04.2019 17:00:00 11,2 7,4 - - 5 3 - - ENE 1016,7 0 0,0
16.04.2019 16:00:00 11,2 6,3 - - 4 2 - - ENE 1016,7 0 0,0
16.04.2019 15:00:00 10,6 5,7 - - 4 2 - - ENE 1016,9 0 0,0
16.04.2019 14:00:00 10,4 6,4 - - 9 5 - - E 1016,8 0 0,0
16.04.2019 13:00:00 9,9 6,0 - - 5 3 - - ESE 1016,7 0 0,2
16.04.2019 12:00:00 9,5 4,4 - - 2 1 - - ENE 1016,6 0 0,0
16.04.2019 11:00:00 8,3 4,1 - - 2 1 - - S 1016,7 0 0,0
16.04.2019 10:00:00 8,0 3,9 8,9 8,7 2 1 - - WNW 1016,5 0 0,0
16.04.2019 09:00:00 7,2 3,4 - - 2 1 - - ENE 1016,3 0 0,0
16.04.2019 08:00:00 6,3 3,6 - - 0 0 - - N 1016,0 0 0,0
16.04.2019 07:00:00 6,0 3,5 - - 8 4 - - E 1015,4 0 0,0
16.04.2019 06:00:00 6,3 3,0 - - 4 2 - - NE 1015,2 0 0,0
16.04.2019 05:00:00 6,9 2,9 - - 4 2 - - NNE 1015,0 0 0,0
16.04.2019 04:00:00 6,7 2,8 - - 4 2 - - E 1015,1 0 0,0
16.04.2019 03:00:00 7,0 2,9 - - 8 4 - - ENE 1015,0 0 0,0
16.04.2019 02:00:00 8,0 2,4 - - 11 6 - - E 1015,1 0 0,0
16.04.2019 01:00:00 8,2 2,2 - - 11 6 - - E 1015,3 - 0,0
16.04.2019 00:00:00 8,9 1,1 - - 15 8 - - E 1015,3 0 0,0
15.04.2019 23:00:00 9,5 0,6 - - 13 7 - - E 1014,6 0 0,0
15.04.2019 22:00:00 9,9 1,1 - - 15 8 - - E 1014,2 0 0,0
15.04.2019 21:00:00 10,4 1,6 - - 15 8 - - E 1013,7 0 0,0
15.04.2019 20:00:00 11,0 2,0 - - 16 9 - - E 1012,9 0 0,0
15.04.2019 19:00:00 11,6 0,6 - - 15 8 - - E 1012,9 0 0,0
15.04.2019 18:00:00 11,5 2,0 - - 18 10 - - E 1013,0 0 0,0
15.04.2019 17:00:00 11,8 1,6 - - 21 11 48 26 E 1013,3 0 0,0
15.04.2019 16:00:00 12,0 1,0 - - 21 11 54 29 E 1013,7 0 0,0
15.04.2019 15:00:00 11,1 1,1 - - 26 14 55 30 E 1014,2 0 0,0
15.04.2019 14:00:00 11,0 1,4 - - 26 14 50 27 E 1015,0 6 0,0
15.04.2019 13:00:00 10,2 1,6 - - 22 12 54 29 ESE 1016,0 18 0,0
15.04.2019 12:00:00 9,2 0,6 - - 26 14 57 31 E 1017,2 0 0,0
15.04.2019 11:00:00 8,1 -0,3 - - 26 14 52 28 E 1017,6 0 0,0
15.04.2019 10:00:00 6,9 -0,6 8,9 8,7 22 12 - - E 1018,5 0 0,0
15.04.2019 09:00:00 6,3 -0,1 - - 16 9 46 25 E 1019,3 0 0,0
15.04.2019 08:00:00 5,2 0,4 - - 22 12 - - E 1019,7 0 0,0
15.04.2019 07:00:00 4,6 0,8 - - 18 10 - - E 1019,7 0 0,0
15.04.2019 06:00:00 4,7 0,7 - - 16 9 - - E 1020,2 0 0,0
15.04.2019 05:00:00 4,4 0,6 - - 15 8 - - ENE 1020,7 0 0,0
15.04.2019 04:00:00 4,0 0,1 - - 24 13 - - E 1021,5 0 0,0
15.04.2019 03:00:00 3,6 -0,5 - - 15 8 - - E 1022,6 0 0,0
15.04.2019 02:00:00 4,0 -1,1 - - 15 8 - - E 1023,3 0 0,0
15.04.2019 01:00:00 4,6 -1,2 - - 21 11 - - E 1023,5 - 0,0
15.04.2019 00:00:00 4,8 -1,4 - - 18 10 - - E 1023,7 0 0,0
14.04.2019 23:00:00 5,2 -1,1 - - 13 7 - - E 1023,7 0 0,0
14.04.2019 22:00:00 5,7 -1,2 - - 15 8 - - E 1023,7 0 0,0
14.04.2019 21:00:00 6,0 -1,5 - - 15 8 - - E 1023,6 0 0,0
14.04.2019 20:00:00 6,3 -1,4 - - 16 9 - - E 1023,4 0 0,0
14.04.2019 19:00:00 6,9 -2,0 - - 15 8 - - E 1023,3 0 0,0
14.04.2019 18:00:00 7,5 -3,1 - - 16 9 - - ESE 1023,5 0 0,0
14.04.2019 17:00:00 7,8 -2,2 - - 11 6 - - ESE 1023,5 0 0,0
14.04.2019 16:00:00 7,8 -2,2 - - 16 9 - - ESE 1024,1 0 0,0
14.04.2019 15:00:00 8,0 -3,1 - - 18 10 - - E 1024,8 6 0,0
14.04.2019 14:00:00 7,9 -1,7 - - 24 13 - - E 1024,2 12 0,0
14.04.2019 13:00:00 7,0 -1,4 - - 26 14 46 25 E 1024,2 0 0,0
14.04.2019 12:00:00 6,3 -2,0 - - 31 17 54 29 E 1024,1 0 0,0
14.04.2019 11:00:00 5,6 -0,7 - - 22 12 - - E 1025,1 24 0,0
14.04.2019 10:00:00 5,0 -0,6 9,2 8,7 22 12 - - E 1025,4 12 0,0
14.04.2019 09:00:00 4,2 -1,3 - - 15 8 - - E 1025,9 60 0,0
14.04.2019 08:00:00 2,6 -1,8 - - 15 8 - - E 1026,0 48 0,0
14.04.2019 07:00:00 1,6 -2,3 - - 9 5 - - E 1025,9 6 0,0
14.04.2019 06:00:00 1,0 -2,8 - - 15 8 - - E 1025,5 0 0,0
14.04.2019 05:00:00 1,2 -2,7 - - 16 9 - - E 1025,7 0 0,0
14.04.2019 04:00:00 1,6 -2,2 - - 16 9 - - E 1025,9 0 0,0
14.04.2019 03:00:00 1,7 -2,3 - - 13 7 - - E 1025,8 0 0,0
14.04.2019 02:00:00 2,2 -2,4 - - 15 8 - - E 1025,8 0 0,0
14.04.2019 01:00:00 2,5 -2,8 - - 15 8 - - E 1025,7 - 0,0
14.04.2019 00:00:00 3,1 -3,1 - - 18 10 - - E 1025,8 0 0,0
13.04.2019 23:00:00 3,7 -2,2 - - 21 11 - - E 1025,7 0 0,0
13.04.2019 22:00:00 4,0 -1,6 - - 18 10 - - E 1025,7 0 0,0
13.04.2019 21:00:00 4,4 -2,5 - - 11 6 - - E 1025,6 0 0,0
13.04.2019 20:00:00 6,1 -2,0 - - 18 10 - - E 1025,3 24 0,0
13.04.2019 19:00:00 8,0 -3,1 - - 21 11 - - E 1024,7 60 0,0
13.04.2019 18:00:00 8,1 -4,1 - - 22 12 - - E 1025,3 42 0,0
13.04.2019 17:00:00 8,4 -3,0 - - 16 9 - - ESE 1025,8 30 0,0
13.04.2019 16:00:00 9,3 -1,5 - - 24 13 - - E 1025,9 54 0,0
13.04.2019 15:00:00 8,8 -1,9 - - 22 12 46 25 E 1026,4 60 0,0
13.04.2019 14:00:00 8,4 -2,5 - - 24 13 - - E 1026,5 60 0,0
13.04.2019 13:00:00 8,2 -1,6 - - 28 15 59 32 E 1026,9 60 0,0
13.04.2019 12:00:00 7,6 -0,9 - - 26 14 - - E 1027,0 48 0,0
13.04.2019 11:00:00 5,5 -1,2 - - 22 12 - - E 1027,7 54 0,0
13.04.2019 10:00:00 5,1 -1,5 9,2 8,7 24 13 - - E 1027,7 60 0,0
13.04.2019 09:00:00 4,3 -1,4 - - 22 12 - - ESE 1028,4 54 0,0
13.04.2019 08:00:00 3,3 -2,1 - - 13 7 - - ESE 1028,7 18 0,0
13.04.2019 07:00:00 2,8 -0,5 - - 13 7 - - E 1028,4 0 0,0
13.04.2019 06:00:00 3,2 0,1 - - 11 6 - - E 1027,9 0 0,0
13.04.2019 05:00:00 3,0 0,2 - - 8 4 - - N 1027,9 0 0,0
13.04.2019 04:00:00 2,8 -0,4 - - 9 5 - - NE 1027,8 0 0,0
13.04.2019 03:00:00 2,7 -1,3 - - 11 6 - - ENE 1027,8 0 0,0
13.04.2019 02:00:00 4,2 -1,1 - - 16 9 - - ENE 1027,8 0 0,0
13.04.2019 01:00:00 4,6 -0,1 - - 11 6 - - ENE 1027,7 - 0,0
13.04.2019 00:00:00 4,7 -0,3 - - 13 7 - - ENE 1027,6 0 0,0

tt = temperature
td = dewpoint
tt -20cm = temperature -20cm
tt -100cm = temperature -100cm
ff = wind speed
fx = gusts
dd = wind direction
ppp = reduced air pressure
sd = sunshine duration
rr = precipitation

Next stations